createdAt,value
2023-12-26T00:02:17.641Z,97884.19
2023-12-26T00:04:44.351Z,97879.00
2023-12-26T00:07:11.099Z,97881.59
2023-12-26T00:09:43.829Z,97887.59
2023-12-26T00:12:10.612Z,97885.88
2023-12-26T00:14:38.277Z,97889.25
2023-12-26T00:17:05.018Z,97879.28
2023-12-26T00:19:31.795Z,97882.69
2023-12-26T00:21:58.569Z,97878.59
2023-12-26T00:24:25.258Z,97877.91
2023-12-26T00:26:52.022Z,97866.38
2023-12-26T00:29:18.756Z,97869.09
2023-12-26T00:31:45.495Z,97865.09
2023-12-26T00:34:12.351Z,97863.63
2023-12-26T00:36:39.172Z,97864.53
2023-12-26T00:39:06.939Z,97869.44
2023-12-26T00:41:35.555Z,97867.94
2023-12-26T00:44:02.220Z,97863.97
2023-12-26T00:46:28.991Z,97864.13
2023-12-26T00:48:55.833Z,97865.03
2023-12-26T00:51:23.645Z,97851.78
2023-12-26T00:53:50.388Z,97849.31
2023-12-26T00:56:17.401Z,97864.53
2023-12-26T00:58:45.280Z,97850.25
2023-12-26T01:01:12.152Z,97855.38
2023-12-26T01:03:39.145Z,97849.44
2023-12-26T01:06:06.160Z,97852.78
2023-12-26T01:08:34.415Z,97845.75
2023-12-26T01:11:01.145Z,97839.41
2023-12-26T01:13:31.259Z,97831.69
2023-12-26T01:15:57.993Z,97834.34
2023-12-26T01:18:24.755Z,97832.75
2023-12-26T01:20:51.581Z,97837.06
2023-12-26T01:23:18.245Z,97834.78
2023-12-26T01:25:45.105Z,97832.44
2023-12-26T01:28:11.771Z,97825.06
2023-12-26T01:30:41.647Z,97819.41
2023-12-26T01:33:08.756Z,97826.97
2023-12-26T01:35:35.645Z,97819.81
2023-12-26T01:38:02.924Z,97817.41
2023-12-26T01:40:29.609Z,97819.84
2023-12-26T01:42:56.545Z,97817.47
2023-12-26T01:45:23.356Z,97819.44
2023-12-26T01:47:52.411Z,97812.28
2023-12-26T01:50:19.319Z,97815.19
2023-12-26T01:52:46.131Z,97817.78
2023-12-26T01:55:14.963Z,97808.63
2023-12-26T01:57:42.413Z,97807.06
2023-12-26T02:00:09.623Z,97804.94
2023-12-26T02:02:39.489Z,97803.56
2023-12-26T02:05:06.663Z,97813.56
2023-12-26T02:07:33.356Z,97814.34
2023-12-26T02:10:01.719Z,97818.50
2023-12-26T02:12:28.456Z,97818.22
2023-12-26T02:14:55.341Z,97824.25
2023-12-26T02:17:25.835Z,97828.06
2023-12-26T02:19:53.098Z,97832.50
2023-12-26T02:22:19.924Z,97832.63
2023-12-26T02:24:48.753Z,97831.22
2023-12-26T02:27:24.165Z,97826.47
2023-12-26T02:29:53.035Z,97829.22
2023-12-26T02:32:20.913Z,97829.50
2023-12-26T02:34:48.755Z,97827.34
2023-12-26T02:37:15.650Z,97835.72
2023-12-26T02:39:44.516Z,97835.72
2023-12-26T02:42:12.377Z,97839.03
2023-12-26T02:44:39.494Z,97836.75
2023-12-26T02:47:06.239Z,97844.84
2023-12-26T02:49:32.946Z,97840.88
2023-12-26T02:51:59.669Z,97838.28
2023-12-26T02:54:26.438Z,97847.75
2023-12-26T02:56:53.970Z,97838.59
2023-12-26T02:59:20.699Z,97834.25
2023-12-26T03:01:47.540Z,97838.34
2023-12-26T03:04:14.204Z,97836.41
2023-12-26T03:06:41.129Z,97839.34
2023-12-26T03:09:08.034Z,97836.94
2023-12-26T03:11:34.704Z,97843.97
2023-12-26T03:14:01.867Z,97843.72
2023-12-26T03:16:28.710Z,97842.06
2023-12-26T03:18:55.610Z,97836.19
2023-12-26T03:21:22.904Z,97836.06
2023-12-26T03:23:51.299Z,97835.38
2023-12-26T03:26:18.042Z,97839.81
2023-12-26T03:28:44.716Z,97840.09
2023-12-26T03:31:14.305Z,97837.81
2023-12-26T03:33:41.451Z,97836.28
2023-12-26T03:36:09.647Z,97841.56
2023-12-26T03:38:37.995Z,97835.19
2023-12-26T03:41:04.856Z,97836.34
2023-12-26T03:43:32.058Z,97836.22
2023-12-26T03:45:58.957Z,97831.03
2023-12-26T03:48:25.781Z,97825.00
2023-12-26T03:50:52.553Z,97830.00
2023-12-26T03:53:19.384Z,97825.78
2023-12-26T03:55:47.979Z,97819.16
2023-12-26T03:58:16.516Z,97818.53
2023-12-26T04:00:43.209Z,97823.03
2023-12-26T04:03:10.496Z,97818.22
2023-12-26T04:05:37.428Z,97812.44
2023-12-26T04:08:05.278Z,97821.19
2023-12-26T04:10:32.164Z,97824.91
2023-12-26T04:12:58.921Z,97816.59
2023-12-26T04:15:25.875Z,97814.31
2023-12-26T04:17:53.346Z,97816.34
2023-12-26T04:20:20.139Z,97826.78
2023-12-26T04:22:46.940Z,97821.09
2023-12-26T04:25:13.652Z,97829.44
2023-12-26T04:27:40.400Z,97820.06
2023-12-26T04:30:07.882Z,97828.31
2023-12-26T04:32:35.616Z,97816.41
2023-12-26T04:35:02.879Z,97818.97
2023-12-26T04:37:29.846Z,97823.69
2023-12-26T04:39:56.507Z,97819.78
2023-12-26T04:42:23.297Z,97818.31
2023-12-26T04:44:50.150Z,97820.19
2023-12-26T04:47:17.904Z,97824.72
2023-12-26T04:49:44.730Z,97826.66
2023-12-26T04:52:11.523Z,97829.34
2023-12-26T04:54:38.175Z,97832.91
2023-12-26T04:57:05.033Z,97836.41
2023-12-26T04:59:31.728Z,97826.56
2023-12-26T05:01:58.480Z,97828.31
2023-12-26T05:04:25.136Z,97834.25
2023-12-26T05:06:52.456Z,97842.66
2023-12-26T05:09:19.354Z,97837.09
2023-12-26T05:11:46.165Z,97832.81
2023-12-26T05:14:12.846Z,97841.81
2023-12-26T05:16:45.718Z,97834.06
2023-12-26T05:19:13.012Z,97842.13
2023-12-26T05:21:39.993Z,97849.09
2023-12-26T05:24:07.026Z,97843.00
2023-12-26T05:26:41.026Z,97844.59
2023-12-26T05:29:08.294Z,97850.50
2023-12-26T05:31:34.945Z,97849.69
2023-12-26T05:34:03.735Z,97849.69
2023-12-26T05:36:30.780Z,97856.84
2023-12-26T05:38:58.482Z,97858.63
2023-12-26T05:41:26.320Z,97864.81
2023-12-26T05:43:53.359Z,97861.38
2023-12-26T05:46:21.605Z,97854.94
2023-12-26T05:48:48.988Z,97851.91
2023-12-26T05:51:15.951Z,97853.78
2023-12-26T05:53:42.984Z,97852.34
2023-12-26T05:56:09.810Z,97851.41
2023-12-26T05:58:36.586Z,97849.91
2023-12-26T06:01:03.421Z,97857.69
2023-12-26T06:03:30.279Z,97856.31
2023-12-26T06:05:57.067Z,97864.16
2023-12-26T06:08:24.602Z,97866.47
2023-12-26T06:10:51.369Z,97874.78
2023-12-26T06:13:18.094Z,97882.16
2023-12-26T06:15:46.975Z,97875.47
2023-12-26T06:18:13.980Z,97884.94
2023-12-26T06:20:40.739Z,97892.66
2023-12-26T06:23:07.520Z,97887.13
2023-12-26T06:25:34.253Z,97884.91
2023-12-26T06:28:01.762Z,97885.72
2023-12-26T06:30:28.584Z,97887.38
2023-12-26T06:32:55.653Z,97887.25
2023-12-26T06:35:22.557Z,97883.25
2023-12-26T06:37:49.287Z,97885.78
2023-12-26T06:40:16.005Z,97891.19
2023-12-26T06:42:42.873Z,97886.28
2023-12-26T06:45:09.796Z,97888.28
2023-12-26T06:47:36.663Z,97892.47
2023-12-26T06:50:03.404Z,97897.31
2023-12-26T06:52:30.164Z,97904.13
2023-12-26T06:54:57.300Z,97906.84
2023-12-26T06:57:24.038Z,97901.38
2023-12-26T06:59:53.289Z,97907.47
2023-12-26T07:02:20.518Z,97908.81
2023-12-26T07:04:47.236Z,97916.00
2023-12-26T07:07:14.338Z,97912.72
2023-12-26T07:09:41.043Z,97923.81
2023-12-26T07:12:08.182Z,97923.97
2023-12-26T07:14:34.987Z,97923.34
2023-12-26T07:17:01.695Z,97931.94
2023-12-26T07:19:28.496Z,97932.19
2023-12-26T07:21:55.283Z,97940.59
2023-12-26T07:24:22.097Z,97943.91
2023-12-26T07:26:48.977Z,97943.91
2023-12-26T07:29:15.764Z,97954.03
2023-12-26T07:31:42.447Z,97949.91
2023-12-26T07:34:12.355Z,97955.72
2023-12-26T07:36:39.214Z,97950.69
2023-12-26T07:39:06.485Z,97963.47
2023-12-26T07:41:33.554Z,97969.47
2023-12-26T07:44:00.483Z,97958.78
2023-12-26T07:46:27.200Z,97976.47
2023-12-26T07:48:54.154Z,97982.22
2023-12-26T07:51:21.109Z,97982.31
2023-12-26T07:53:48.765Z,97979.88
2023-12-26T07:56:15.612Z,97991.34
2023-12-26T07:58:42.287Z,97988.81
2023-12-26T08:01:09.103Z,97986.31
2023-12-26T08:03:35.906Z,97998.66
2023-12-26T08:06:02.953Z,97995.09
2023-12-26T08:08:29.713Z,98011.06
2023-12-26T08:10:56.448Z,98022.03
2023-12-26T08:13:23.130Z,98019.59
2023-12-26T08:15:49.829Z,98037.25
2023-12-26T08:18:16.761Z,98032.22
2023-12-26T08:20:43.619Z,98036.41
2023-12-26T08:23:10.393Z,98027.78
2023-12-26T08:25:38.600Z,98034.94
2023-12-26T08:28:05.884Z,98047.66
2023-12-26T08:30:35.457Z,98035.47
2023-12-26T08:33:05.591Z,98037.25
2023-12-26T08:35:32.980Z,98039.34
2023-12-26T08:37:59.660Z,98048.00
2023-12-26T08:40:29.123Z,98055.22
2023-12-26T08:42:56.129Z,98060.16
2023-12-26T08:45:23.009Z,98062.69
2023-12-26T08:47:51.054Z,98068.44
2023-12-26T08:50:17.971Z,98076.63
2023-12-26T08:52:44.759Z,98075.78
2023-12-26T08:55:11.400Z,98074.97
2023-12-26T08:57:38.177Z,98077.34
2023-12-26T09:00:06.226Z,98084.19
2023-12-26T09:02:32.980Z,98085.06
2023-12-26T09:05:00.699Z,98087.28
2023-12-26T09:07:27.716Z,98091.31
2023-12-26T09:09:54.415Z,98095.03
2023-12-26T09:12:21.274Z,98095.09
2023-12-26T09:14:48.104Z,98097.25
2023-12-26T09:17:14.915Z,98092.31
2023-12-26T09:19:42.325Z,98095.63
2023-12-26T09:22:09.377Z,98099.78
2023-12-26T09:24:36.076Z,98107.44
2023-12-26T09:27:02.877Z,98100.78
2023-12-26T09:29:29.590Z,98103.34
2023-12-26T09:31:56.310Z,98105.88
2023-12-26T09:34:23.376Z,98104.94
2023-12-26T09:36:50.199Z,98110.81
2023-12-26T09:39:17.004Z,98115.28
2023-12-26T09:41:44.524Z,98112.03
2023-12-26T09:44:11.988Z,98119.16
2023-12-26T09:46:38.909Z,98128.00
2023-12-26T09:49:15.457Z,98141.53
2023-12-26T09:51:46.935Z,98137.00
2023-12-26T09:54:14.008Z,98140.78
2023-12-26T09:56:44.017Z,98122.16
2023-12-26T09:59:11.032Z,98135.56
2023-12-26T10:01:37.711Z,98134.66
2023-12-26T10:04:06.443Z,98148.94
2023-12-26T10:06:33.383Z,98161.56
2023-12-26T10:09:00.635Z,98165.94
2023-12-26T10:11:28.678Z,98153.47
2023-12-26T10:13:55.891Z,98165.06
2023-12-26T10:16:22.812Z,98164.25
2023-12-26T10:18:51.593Z,98156.00
2023-12-26T10:21:18.728Z,98138.91
2023-12-26T10:23:46.592Z,98152.16
2023-12-26T10:26:13.299Z,98168.03
2023-12-26T10:28:42.748Z,98171.22
2023-12-26T10:31:14.955Z,98167.75
2023-12-26T10:33:42.447Z,98170.31
2023-12-26T10:36:12.029Z,98189.34
2023-12-26T10:38:40.454Z,98204.19
2023-12-26T10:41:09.693Z,98153.53
2023-12-26T10:43:43.561Z,98163.47
2023-12-26T10:46:10.562Z,98106.31
2023-12-26T10:48:38.241Z,98113.69
2023-12-26T10:51:07.078Z,98192.03
2023-12-26T10:53:50.551Z,98192.34
2023-12-26T10:56:18.790Z,98153.69
2023-12-26T10:58:45.729Z,98213.56
2023-12-26T11:02:14.392Z,98211.72
2023-12-26T11:05:58.286Z,98225.91
2023-12-26T11:09:40.004Z,98223.91
2023-12-26T11:13:21.419Z,98223.13
2023-12-26T11:17:03.305Z,98227.03
2023-12-26T11:20:44.983Z,98221.19
2023-12-26T11:24:26.697Z,98225.97
2023-12-26T11:28:08.868Z,98238.06
2023-12-26T11:31:50.713Z,98236.66
2023-12-26T11:35:32.046Z,98247.09
2023-12-26T11:39:14.162Z,98254.13
2023-12-26T11:42:55.506Z,98254.81
2023-12-26T11:46:37.108Z,98247.94
2023-12-26T11:50:18.860Z,98254.50
2023-12-26T11:54:00.908Z,98251.91
2023-12-26T11:57:42.418Z,98257.69
2023-12-26T12:01:24.220Z,98266.00
2023-12-26T12:05:06.029Z,98263.47
2023-12-26T12:08:47.675Z,98264.72
2023-12-26T12:12:29.429Z,98263.75
2023-12-26T12:16:11.118Z,98275.41
2023-12-26T12:19:52.919Z,98280.47
2023-12-26T12:23:34.789Z,98287.72
2023-12-26T12:27:16.542Z,98297.59
2023-12-26T12:30:57.834Z,98294.63
2023-12-26T12:34:39.301Z,98300.47
2023-12-26T12:38:21.186Z,98303.66
2023-12-26T12:42:02.845Z,98310.41
2023-12-26T12:45:44.743Z,98300.72
2023-12-26T12:49:26.215Z,98298.03
2023-12-26T12:53:07.837Z,98301.38
2023-12-26T12:56:49.540Z,98305.84
2023-12-26T13:00:31.247Z,98312.19
2023-12-26T13:04:13.300Z,98311.31
2023-12-26T13:07:54.536Z,98319.88
2023-12-26T13:11:35.799Z,98311.94
2023-12-26T13:15:17.841Z,98317.41
2023-12-26T13:19:00.228Z,98331.25
2023-12-26T13:22:41.599Z,98335.00
2023-12-26T13:26:23.073Z,98346.38
2023-12-26T13:30:04.968Z,98345.31
2023-12-26T13:33:46.692Z,98348.22
2023-12-26T13:37:28.331Z,98353.78
2023-12-26T13:41:10.198Z,98368.34
2023-12-26T13:44:52.135Z,98369.28
2023-12-26T13:48:33.756Z,98372.25
2023-12-26T13:51:56.369Z,98376.06
2023-12-26T13:55:00.639Z,98380.50
2023-12-26T13:57:27.431Z,98392.69
2023-12-26T14:00:32.252Z,98399.72
2023-12-26T14:02:59.432Z,98398.25
2023-12-26T14:06:04.090Z,98398.44
2023-12-26T14:08:30.877Z,98406.13
2023-12-26T14:10:57.619Z,98356.84
2023-12-26T14:14:01.996Z,98415.25
2023-12-26T14:16:28.783Z,98411.41
2023-12-26T14:18:55.645Z,98430.44
2023-12-26T14:22:00.055Z,98432.66
2023-12-26T14:24:26.823Z,98439.06
2023-12-26T14:26:56.431Z,98437.50
2023-12-26T14:30:00.681Z,98439.56
2023-12-26T14:32:27.691Z,98452.78
2023-12-26T14:35:31.884Z,98456.50
2023-12-26T14:37:58.748Z,98463.84
2023-12-26T14:41:03.569Z,98470.63
2023-12-26T14:43:30.359Z,98462.59
2023-12-26T14:46:34.499Z,98472.38
2023-12-26T14:49:01.351Z,98476.75
2023-12-26T14:52:05.435Z,98481.16
2023-12-26T14:55:10.614Z,98488.53
2023-12-26T14:57:38.004Z,98490.22
2023-12-26T15:00:42.298Z,98487.03
2023-12-26T15:03:09.687Z,98443.41
2023-12-26T15:05:36.542Z,98455.25
2023-12-26T15:08:04.259Z,98457.97
2023-12-26T15:10:32.283Z,98502.38
2023-12-26T15:13:01.435Z,98489.56
2023-12-26T15:15:28.395Z,98510.41
2023-12-26T15:17:55.831Z,98500.81
2023-12-26T15:20:23.353Z,98506.69
2023-12-26T15:22:50.769Z,98529.34
2023-12-26T15:25:17.662Z,98540.56
2023-12-26T15:27:44.549Z,98540.72
2023-12-26T15:30:12.210Z,98540.72
2023-12-26T15:32:39.348Z,98542.31
2023-12-26T15:35:07.189Z,98547.31
2023-12-26T15:37:34.820Z,98556.59
2023-12-26T15:40:01.881Z,98534.38
2023-12-26T15:42:29.410Z,98533.59
2023-12-26T15:44:56.305Z,98557.81
2023-12-26T15:47:23.625Z,98556.06
2023-12-26T15:49:50.828Z,98561.97
2023-12-26T15:52:17.771Z,98567.78
2023-12-26T15:54:44.677Z,98572.06
2023-12-26T15:57:11.598Z,98580.53
2023-12-26T15:59:38.474Z,98550.63
2023-12-26T16:02:06.082Z,98583.09
2023-12-26T16:04:33.102Z,98585.69
2023-12-26T16:07:00.080Z,98534.34
2023-12-26T16:09:29.778Z,98587.88
2023-12-26T16:11:57.672Z,98588.72
2023-12-26T16:14:27.519Z,98585.69
2023-12-26T16:16:54.595Z,98580.63
2023-12-26T16:19:21.573Z,98488.59
2023-12-26T16:21:48.506Z,98596.31
2023-12-26T16:24:15.363Z,98601.47
2023-12-26T16:26:47.377Z,98604.75
2023-12-26T16:29:14.451Z,98537.88
2023-12-26T16:31:41.368Z,98620.34
2023-12-26T16:34:08.427Z,98532.66
2023-12-26T16:36:35.453Z,98615.72
2023-12-26T16:39:02.415Z,98610.56
2023-12-26T16:41:29.340Z,98626.50
2023-12-26T16:43:56.088Z,98637.56
2023-12-26T16:46:23.038Z,98630.97
2023-12-26T16:48:50.137Z,98634.31
2023-12-26T16:51:17.184Z,98624.66
2023-12-26T16:53:44.116Z,98630.22
2023-12-26T16:56:11.795Z,98657.34
2023-12-26T16:58:42.685Z,98569.84
2023-12-26T17:01:10.655Z,98669.50
2023-12-26T17:03:39.988Z,98597.00
2023-12-26T17:06:07.301Z,98675.53
2023-12-26T17:08:34.313Z,98679.09
2023-12-26T17:11:03.927Z,98680.03
2023-12-26T17:13:33.422Z,98685.88
2023-12-26T17:16:00.240Z,98691.78
2023-12-26T17:18:27.271Z,98696.63
2023-12-26T17:20:54.174Z,98693.72
2023-12-26T17:23:21.027Z,98699.19
2023-12-26T17:25:47.910Z,98694.00
2023-12-26T17:28:17.985Z,98696.50
2023-12-26T17:30:45.960Z,98700.78
2023-12-26T17:33:13.040Z,98697.38
2023-12-26T17:35:39.904Z,98704.78
2023-12-26T17:38:06.688Z,98655.38
2023-12-26T17:40:33.792Z,98713.63
2023-12-26T17:43:00.530Z,98719.84
2023-12-26T17:45:29.990Z,98683.75
2023-12-26T17:47:57.422Z,98721.88
2023-12-26T17:50:24.550Z,98736.16
2023-12-26T17:52:52.313Z,98733.63
2023-12-26T17:55:20.634Z,98747.16
2023-12-26T17:57:48.054Z,98647.94
2023-12-26T18:00:15.324Z,98752.44
2023-12-26T18:02:42.291Z,98755.97
2023-12-26T18:05:09.439Z,98776.13
2023-12-26T18:07:37.364Z,98776.97
2023-12-26T18:10:04.605Z,98741.91
2023-12-26T18:12:31.539Z,98775.88
2023-12-26T18:14:58.636Z,98784.19
2023-12-26T18:17:25.739Z,98771.69
2023-12-26T18:19:55.693Z,98798.63
2023-12-26T18:22:23.081Z,98791.38
2023-12-26T18:24:50.678Z,98789.50
2023-12-26T18:27:17.708Z,98785.97
2023-12-26T18:29:44.512Z,98794.53
2023-12-26T18:32:11.421Z,98795.50
2023-12-26T18:34:38.623Z,98803.19
2023-12-26T18:37:06.173Z,98765.19
2023-12-26T18:39:34.303Z,98784.34
2023-12-26T18:42:01.193Z,98817.56
2023-12-26T18:44:28.256Z,98816.78
2023-12-26T18:46:55.164Z,98672.94
2023-12-26T18:49:22.012Z,98726.84
2023-12-26T18:51:48.938Z,98835.63
2023-12-26T18:54:15.852Z,98840.63
2023-12-26T18:56:42.725Z,98844.78
2023-12-26T18:59:09.981Z,98842.19
2023-12-26T19:01:45.475Z,98755.19
2023-12-26T19:04:12.751Z,98849.53
2023-12-26T19:06:40.040Z,98858.50
2023-12-26T19:09:07.703Z,98861.91
2023-12-26T19:11:34.513Z,98853.53
2023-12-26T19:14:01.358Z,98862.88
2023-12-26T19:16:28.365Z,98871.38
2023-12-26T19:18:55.292Z,98868.97
2023-12-26T19:21:22.178Z,98872.28
2023-12-26T19:23:49.131Z,98883.22
2023-12-26T19:26:15.990Z,98885.94
2023-12-26T19:28:42.920Z,98896.06
2023-12-26T19:31:14.555Z,98855.47
2023-12-26T19:33:41.618Z,98902.66
2023-12-26T19:36:09.067Z,98887.78
2023-12-26T19:38:39.958Z,98900.47
2023-12-26T19:41:07.156Z,98914.81
2023-12-26T19:43:34.025Z,98934.13
2023-12-26T19:46:00.940Z,98929.97
2023-12-26T19:48:28.258Z,98911.88
2023-12-26T19:50:55.491Z,98948.38
2023-12-26T19:53:22.464Z,98955.09
2023-12-26T19:55:49.581Z,98932.56
2023-12-26T19:58:16.391Z,98955.09
2023-12-26T20:00:43.326Z,98963.63
2023-12-26T20:03:18.696Z,98971.19
2023-12-26T20:05:58.466Z,98957.84
2023-12-26T20:08:26.318Z,98972.09
2023-12-26T20:10:53.141Z,98969.56
2023-12-26T20:13:20.267Z,98968.78
2023-12-26T20:15:47.251Z,98971.13
2023-12-26T20:18:14.262Z,98912.38
2023-12-26T20:20:41.105Z,98979.75
2023-12-26T20:23:09.007Z,98985.66
2023-12-26T20:25:35.832Z,98993.34
2023-12-26T20:28:08.468Z,98978.25
2023-12-26T20:30:35.853Z,99021.59
2023-12-26T20:33:04.424Z,99004.63
2023-12-26T20:35:31.308Z,98920.06
2023-12-26T20:37:58.382Z,99008.94
2023-12-26T20:40:25.402Z,99002.44
2023-12-26T20:42:52.241Z,99013.53
2023-12-26T20:45:19.141Z,99015.38
2023-12-26T20:47:46.027Z,99029.84
2023-12-26T20:50:12.931Z,99026.88
2023-12-26T20:52:39.664Z,99045.31
2023-12-26T20:55:07.925Z,99049.63
2023-12-26T20:57:34.757Z,99039.03
2023-12-26T21:00:01.828Z,99058.91
2023-12-26T21:02:28.806Z,99078.13
2023-12-26T21:04:55.584Z,99080.28
2023-12-26T21:07:22.833Z,99082.56
2023-12-26T21:09:49.697Z,99076.56
2023-12-26T21:12:16.495Z,99082.47
2023-12-26T21:14:43.310Z,99093.56
2023-12-26T21:17:10.985Z,99098.81
2023-12-26T21:19:39.896Z,99114.09
2023-12-26T21:22:08.709Z,99110.03
2023-12-26T21:24:35.624Z,99093.44
2023-12-26T21:27:02.455Z,99143.50
2023-12-26T21:29:29.544Z,99145.19
2023-12-26T21:31:56.299Z,99144.34
2023-12-26T21:34:23.180Z,99152.75
2023-12-26T21:36:49.951Z,99104.00
2023-12-26T21:39:19.765Z,99165.47
2023-12-26T21:41:46.631Z,99182.16
2023-12-26T21:44:15.121Z,99186.50
2023-12-26T21:46:46.323Z,99126.03
2023-12-26T21:49:14.547Z,99108.66
2023-12-26T21:51:41.658Z,99159.88
2023-12-26T21:54:08.676Z,99201.38
2023-12-26T21:56:35.469Z,99210.44
2023-12-26T21:59:02.241Z,99209.66
2023-12-26T22:01:31.189Z,99213.03
2023-12-26T22:03:59.126Z,99204.56
2023-12-26T22:06:26.234Z,99217.97
2023-12-26T22:08:53.224Z,99211.94
2023-12-26T22:11:20.808Z,99219.19
2023-12-26T22:13:47.780Z,99168.78
2023-12-26T22:16:23.442Z,99208.75
2023-12-26T22:18:54.077Z,99212.94
2023-12-26T22:21:21.983Z,99209.69
2023-12-26T22:23:48.810Z,99172.41
2023-12-26T22:26:15.588Z,99229.00
2023-12-26T22:28:42.393Z,99240.63
2023-12-26T22:31:20.386Z,99252.34
2023-12-26T22:33:52.526Z,99237.28
2023-12-26T22:36:20.138Z,99273.63
2023-12-26T22:38:46.941Z,99282.75
2023-12-26T22:41:19.938Z,99294.56
2023-12-26T22:43:46.820Z,99302.16
2023-12-26T22:46:23.755Z,99308.34
2023-12-26T22:48:54.572Z,99315.56
2023-12-26T22:51:22.142Z,99281.50
2023-12-26T22:53:49.197Z,99041.75
2023-12-26T22:56:16.141Z,99322.56
2023-12-26T22:58:43.342Z,99329.16
2023-12-26T23:01:10.701Z,99341.69
2023-12-26T23:03:39.066Z,99347.38
2023-12-26T23:06:06.002Z,99268.56
2023-12-26T23:08:32.882Z,99371.03
2023-12-26T23:10:59.668Z,99375.25
2023-12-26T23:13:26.698Z,99392.97
2023-12-26T23:15:53.942Z,99373.00
2023-12-26T23:18:20.813Z,99394.31
2023-12-26T23:20:47.645Z,99403.31
2023-12-26T23:23:14.498Z,99390.13
2023-12-26T23:25:41.360Z,99423.38
2023-12-26T23:28:08.226Z,99410.78
2023-12-26T23:30:35.052Z,99375.84
2023-12-26T23:33:02.026Z,99411.81
2023-12-26T23:35:28.908Z,99427.88
2023-12-26T23:37:56.001Z,99439.63
2023-12-26T23:40:22.921Z,99441.25
2023-12-26T23:42:49.641Z,99453.78
2023-12-26T23:45:16.488Z,99356.28
2023-12-26T23:47:44.788Z,99340.41
2023-12-26T23:50:11.690Z,99362.56
2023-12-26T23:52:42.092Z,99397.19
2023-12-26T23:55:11.214Z,99424.31
2023-12-26T23:57:38.096Z,99456.66
